Terminal Aerodrome Forecast
Issued by NWS

Home | Current Version | Previous Version | Text Only | Print | Product List | Glossary On
Versions: 1 2 3 4 5 6 7 8 9 10 11 12 13 14 15 16 17
912
FTAK31 PAJN 232034 AAA
TAFASI
TAF AMD
PASI 232034Z 2321/2418 17004KT P6SM -RA SCT015 OVC035
      TEMPO 2321/2401 3SM -RA BR BKN015 OVC035
     FM240400 21006KT 6SM BR BKN007 OVC012
     FM241100 VRB03KT 3SM BR OVC007=

USA.gov is the U.S. government's official web portal to all federal, state and local government web resources and services.